sensor_id;sensor_type;location;lat;lon;timestamp;P1;durP1;ratioP1;P2;durP2;ratioP2
77026;SDS011;65956;52.986;17.490;2023-08-12T00:02:53;10.40;;;5.30;;
77026;SDS011;65956;52.986;17.490;2023-08-12T00:05:19;8.90;;;4.50;;
77026;SDS011;65956;52.986;17.490;2023-08-12T00:07:45;8.90;;;4.90;;
77026;SDS011;65956;52.986;17.490;2023-08-12T00:10:11;7.80;;;4.50;;
77026;SDS011;65956;52.986;17.490;2023-08-12T00:12:38;8.40;;;4.90;;
77026;SDS011;65956;52.986;17.490;2023-08-12T00:15:05;6.50;;;4.70;;
77026;SDS011;65956;52.986;17.490;2023-08-12T00:17:34;8.80;;;4.90;;
77026;SDS011;65956;52.986;17.490;2023-08-12T00:20:01;10.10;;;5.70;;
77026;SDS011;65956;52.986;17.490;2023-08-12T00:22:31;8.60;;;4.70;;
77026;SDS011;65956;52.986;17.490;2023-08-12T00:24:57;7.40;;;5.10;;
77026;SDS011;65956;52.986;17.490;2023-08-12T00:27:23;11.60;;;5.20;;
77026;SDS011;65956;52.986;17.490;2023-08-12T00:29:49;9.30;;;5.60;;
77026;SDS011;65956;52.986;17.490;2023-08-12T00:32:15;9.40;;;5.20;;
77026;SDS011;65956;52.986;17.490;2023-08-12T00:34:41;9.60;;;5.30;;
77026;SDS011;65956;52.986;17.490;2023-08-12T00:37:08;8.80;;;5.20;;
77026;SDS011;65956;52.986;17.490;2023-08-12T00:39:35;8.90;;;5.20;;
77026;SDS011;65956;52.986;17.490;2023-08-12T00:42:01;9.50;;;6.10;;
77026;SDS011;65956;52.986;17.490;2023-08-12T00:44:27;8.40;;;5.80;;
77026;SDS011;65956;52.986;17.490;2023-08-12T00:46:53;9.50;;;5.70;;
77026;SDS011;65956;52.986;17.490;2023-08-12T00:49:21;9.20;;;6.30;;
77026;SDS011;65956;52.986;17.490;2023-08-12T00:51:49;10.50;;;6.60;;
77026;SDS011;65956;52.986;17.490;2023-08-12T00:54:16;9.80;;;5.30;;
77026;SDS011;65956;52.986;17.490;2023-08-12T00:56:43;10.30;;;5.50;;
77026;SDS011;65956;52.986;17.490;2023-08-12T00:59:10;10.70;;;5.80;;
77026;SDS011;65956;52.986;17.490;2023-08-12T01:01:39;11.60;;;6.40;;
77026;SDS011;65956;52.986;17.490;2023-08-12T01:04:07;12.30;;;6.40;;
77026;SDS011;65956;52.986;17.490;2023-08-12T01:06:34;9.20;;;6.10;;
77026;SDS011;65956;52.986;17.490;2023-08-12T01:09:01;8.40;;;5.70;;
77026;SDS011;65956;52.986;17.490;2023-08-12T01:14:33;10.40;;;6.20;;
77026;SDS011;65956;52.986;17.490;2023-08-12T01:17:02;9.40;;;6.00;;
77026;SDS011;65956;52.986;17.490;2023-08-12T01:19:34;11.00;;;6.60;;
77026;SDS011;65956;52.986;17.490;2023-08-12T01:22:03;11.00;;;6.40;;
77026;SDS011;65956;52.986;17.490;2023-08-12T01:24:39;13.60;;;6.90;;
77026;SDS011;65956;52.986;17.490;2023-08-12T01:27:10;10.50;;;6.20;;
77026;SDS011;65956;52.986;17.490;2023-08-12T01:29:40;8.80;;;5.80;;
77026;SDS011;65956;52.986;17.490;2023-08-12T01:32:12;10.50;;;5.70;;
77026;SDS011;65956;52.986;17.490;2023-08-12T01:34:47;12.90;;;6.40;;
77026;SDS011;65956;52.986;17.490;2023-08-12T01:37:31;9.10;;;5.20;;
77026;SDS011;65956;52.986;17.490;2023-08-12T01:40:02;9.20;;;6.10;;
77026;SDS011;65956;52.986;17.490;2023-08-12T01:42:32;8.70;;;5.30;;
77026;SDS011;65956;52.986;17.490;2023-08-12T01:44:59;8.70;;;5.20;;
77026;SDS011;65956;52.986;17.490;2023-08-12T01:47:27;10.50;;;5.40;;
77026;SDS011;65956;52.986;17.490;2023-08-12T01:49:54;9.30;;;5.70;;
77026;SDS011;65956;52.986;17.490;2023-08-12T01:52:23;9.70;;;6.10;;
77026;SDS011;65956;52.986;17.490;2023-08-12T01:54:49;7.40;;;5.30;;
77026;SDS011;65956;52.986;17.490;2023-08-12T01:57:15;7.40;;;5.30;;
77026;SDS011;65956;52.986;17.490;2023-08-12T01:59:41;7.50;;;5.20;;
77026;SDS011;65956;52.986;17.490;2023-08-12T02:02:10;7.50;;;5.30;;
77026;SDS011;65956;52.986;17.490;2023-08-12T02:04:36;9.30;;;5.40;;
77026;SDS011;65956;52.986;17.490;2023-08-12T02:07:03;8.90;;;5.30;;
77026;SDS011;65956;52.986;17.490;2023-08-12T02:09:30;9.80;;;5.70;;
77026;SDS011;65956;52.986;17.490;2023-08-12T02:11:56;9.50;;;5.20;;
77026;SDS011;65956;52.986;17.490;2023-08-12T02:14:23;9.30;;;5.30;;
77026;SDS011;65956;52.986;17.490;2023-08-12T02:16:49;32.60;;;9.80;;
77026;SDS011;65956;52.986;17.490;2023-08-12T02:19:15;18.30;;;7.20;;
77026;SDS011;65956;52.986;17.490;2023-08-12T02:21:42;13.00;;;6.10;;
77026;SDS011;65956;52.986;17.490;2023-08-12T02:24:08;13.00;;;7.10;;
77026;SDS011;65956;52.986;17.490;2023-08-12T02:26:37;10.50;;;5.90;;
77026;SDS011;65956;52.986;17.490;2023-08-12T02:29:03;9.90;;;6.00;;
77026;SDS011;65956;52.986;17.490;2023-08-12T02:31:30;8.90;;;5.80;;
77026;SDS011;65956;52.986;17.490;2023-08-12T02:33:56;10.30;;;5.30;;
77026;SDS011;65956;52.986;17.490;2023-08-12T02:36:24;8.30;;;5.30;;
77026;SDS011;65956;52.986;17.490;2023-08-12T02:38:51;11.20;;;5.50;;
77026;SDS011;65956;52.986;17.490;2023-08-12T02:41:17;9.40;;;5.70;;
77026;SDS011;65956;52.986;17.490;2023-08-12T02:43:43;10.60;;;5.90;;
77026;SDS011;65956;52.986;17.490;2023-08-12T02:46:09;10.00;;;6.10;;
77026;SDS011;65956;52.986;17.490;2023-08-12T02:48:35;13.80;;;7.60;;
77026;SDS011;65956;52.986;17.490;2023-08-12T02:51:01;11.90;;;7.30;;
77026;SDS011;65956;52.986;17.490;2023-08-12T02:53:27;12.70;;;7.30;;
77026;SDS011;65956;52.986;17.490;2023-08-12T02:55:53;13.50;;;6.70;;
77026;SDS011;65956;52.986;17.490;2023-08-12T02:58:19;11.60;;;6.80;;
77026;SDS011;65956;52.986;17.490;2023-08-12T03:00:45;15.00;;;7.60;;
77026;SDS011;65956;52.986;17.490;2023-08-12T03:03:11;11.30;;;6.80;;
77026;SDS011;65956;52.986;17.490;2023-08-12T03:05:37;14.70;;;7.80;;
77026;SDS011;65956;52.986;17.490;2023-08-12T03:08:04;14.20;;;7.60;;
77026;SDS011;65956;52.986;17.490;2023-08-12T03:10:31;13.60;;;7.70;;
77026;SDS011;65956;52.986;17.490;2023-08-12T03:12:59;12.00;;;6.40;;
77026;SDS011;65956;52.986;17.490;2023-08-12T03:15:25;15.60;;;7.20;;
77026;SDS011;65956;52.986;17.490;2023-08-12T03:17:51;13.60;;;7.70;;
77026;SDS011;65956;52.986;17.490;2023-08-12T03:20:18;15.30;;;8.30;;
77026;SDS011;65956;52.986;17.490;2023-08-12T03:22:44;13.30;;;7.50;;
77026;SDS011;65956;52.986;17.490;2023-08-12T03:25:10;16.60;;;8.20;;
77026;SDS011;65956;52.986;17.490;2023-08-12T03:27:36;12.20;;;7.40;;
77026;SDS011;65956;52.986;17.490;2023-08-12T03:30:03;13.60;;;7.90;;
77026;SDS011;65956;52.986;17.490;2023-08-12T03:32:29;13.80;;;7.60;;
77026;SDS011;65956;52.986;17.490;2023-08-12T03:34:55;10.90;;;7.10;;
77026;SDS011;65956;52.986;17.490;2023-08-12T03:37:22;12.30;;;7.50;;
77026;SDS011;65956;52.986;17.490;2023-08-12T03:39:49;14.40;;;7.20;;
77026;SDS011;65956;52.986;17.490;2023-08-12T03:42:15;11.80;;;7.00;;
77026;SDS011;65956;52.986;17.490;2023-08-12T03:44:43;10.70;;;6.80;;
77026;SDS011;65956;52.986;17.490;2023-08-12T03:47:09;9.30;;;6.30;;
77026;SDS011;65956;52.986;17.490;2023-08-12T03:49:36;9.90;;;6.20;;
77026;SDS011;65956;52.986;17.490;2023-08-12T03:52:03;9.00;;;5.80;;
77026;SDS011;65956;52.986;17.490;2023-08-12T03:54:32;10.60;;;6.50;;
77026;SDS011;65956;52.986;17.490;2023-08-12T03:56:59;13.50;;;7.40;;
77026;SDS011;65956;52.986;17.490;2023-08-12T03:59:26;12.50;;;7.20;;
77026;SDS011;65956;52.986;17.490;2023-08-12T04:01:52;11.20;;;7.20;;
77026;SDS011;65956;52.986;17.490;2023-08-12T04:04:18;11.80;;;6.20;;
77026;SDS011;65956;52.986;17.490;2023-08-12T04:06:44;13.20;;;6.90;;
77026;SDS011;65956;52.986;17.490;2023-08-12T04:09:10;12.40;;;7.00;;
77026;SDS011;65956;52.986;17.490;2023-08-12T04:11:36;10.30;;;6.70;;
77026;SDS011;65956;52.986;17.490;2023-08-12T04:14:02;9.50;;;6.30;;
77026;SDS011;65956;52.986;17.490;2023-08-12T04:16:28;10.90;;;6.90;;
77026;SDS011;65956;52.986;17.490;2023-08-12T04:18:54;9.30;;;6.20;;
77026;SDS011;65956;52.986;17.490;2023-08-12T04:21:20;10.70;;;6.60;;
77026;SDS011;65956;52.986;17.490;2023-08-12T04:23:46;11.40;;;6.30;;
77026;SDS011;65956;52.986;17.490;2023-08-12T04:26:12;10.60;;;6.50;;
77026;SDS011;65956;52.986;17.490;2023-08-12T04:28:38;11.40;;;6.50;;
77026;SDS011;65956;52.986;17.490;2023-08-12T04:31:05;10.30;;;7.10;;
77026;SDS011;65956;52.986;17.490;2023-08-12T04:33:33;12.00;;;6.40;;
77026;SDS011;65956;52.986;17.490;2023-08-12T04:35:59;9.30;;;6.90;;
77026;SDS011;65956;52.986;17.490;2023-08-12T04:38:25;11.40;;;6.90;;
77026;SDS011;65956;52.986;17.490;2023-08-12T04:40:53;11.80;;;7.10;;
77026;SDS011;65956;52.986;17.490;2023-08-12T04:43:22;12.10;;;7.40;;
77026;SDS011;65956;52.986;17.490;2023-08-12T04:45:49;12.80;;;7.90;;
77026;SDS011;65956;52.986;17.490;2023-08-12T04:48:18;14.30;;;10.40;;
77026;SDS011;65956;52.986;17.490;2023-08-12T04:50:44;14.20;;;9.50;;
77026;SDS011;65956;52.986;17.490;2023-08-12T06:37:40;7.00;;;2.50;;
77026;SDS011;65956;52.986;17.490;2023-08-12T06:40:07;5.70;;;2.40;;
77026;SDS011;65956;52.986;17.490;2023-08-12T06:42:33;5.20;;;2.60;;
77026;SDS011;65956;52.986;17.490;2023-08-12T06:44:59;6.10;;;2.70;;
77026;SDS011;65956;52.986;17.490;2023-08-12T06:47:26;6.20;;;2.70;;
77026;SDS011;65956;52.986;17.490;2023-08-12T06:49:53;5.20;;;2.40;;
77026;SDS011;65956;52.986;17.490;2023-08-12T06:52:19;5.10;;;2.90;;
77026;SDS011;65956;52.986;17.490;2023-08-12T06:54:45;4.80;;;2.50;;
77026;SDS011;65956;52.986;17.490;2023-08-12T06:57:11;5.30;;;2.60;;
77026;SDS011;65956;52.986;17.490;2023-08-12T06:59:37;4.70;;;2.50;;
77026;SDS011;65956;52.986;17.490;2023-08-12T07:02:04;5.00;;;2.80;;
77026;SDS011;65956;52.986;17.490;2023-08-12T07:04:31;5.20;;;2.50;;
77026;SDS011;65956;52.986;17.490;2023-08-12T07:06:57;5.60;;;2.40;;
77026;SDS011;65956;52.986;17.490;2023-08-12T07:09:23;5.00;;;2.50;;
77026;SDS011;65956;52.986;17.490;2023-08-12T07:11:49;5.40;;;2.70;;
77026;SDS011;65956;52.986;17.490;2023-08-12T07:14:15;5.20;;;2.60;;
77026;SDS011;65956;52.986;17.490;2023-08-12T07:16:41;6.40;;;2.90;;
77026;SDS011;65956;52.986;17.490;2023-08-12T07:19:07;6.00;;;2.90;;
77026;SDS011;65956;52.986;17.490;2023-08-12T07:21:33;4.20;;;2.50;;
77026;SDS011;65956;52.986;17.490;2023-08-12T07:23:58;6.40;;;2.50;;
77026;SDS011;65956;52.986;17.490;2023-08-12T07:26:24;5.60;;;2.70;;
77026;SDS011;65956;52.986;17.490;2023-08-12T07:28:50;5.10;;;2.50;;
77026;SDS011;65956;52.986;17.490;2023-08-12T07:31:17;6.70;;;3.10;;
77026;SDS011;65956;52.986;17.490;2023-08-12T07:33:43;4.90;;;2.30;;
77026;SDS011;65956;52.986;17.490;2023-08-12T07:36:09;5.90;;;2.70;;
77026;SDS011;65956;52.986;17.490;2023-08-12T07:38:35;4.60;;;2.30;;
77026;SDS011;65956;52.986;17.490;2023-08-12T07:41:02;5.20;;;2.60;;
77026;SDS011;65956;52.986;17.490;2023-08-12T07:43:28;5.10;;;2.60;;
77026;SDS011;65956;52.986;17.490;2023-08-12T07:45:54;4.80;;;2.60;;
77026;SDS011;65956;52.986;17.490;2023-08-12T07:48:20;5.10;;;2.30;;
77026;SDS011;65956;52.986;17.490;2023-08-12T07:50:47;4.50;;;2.50;;
77026;SDS011;65956;52.986;17.490;2023-08-12T07:53:16;4.90;;;2.40;;
77026;SDS011;65956;52.986;17.490;2023-08-12T07:55:42;4.70;;;2.50;;
77026;SDS011;65956;52.986;17.490;2023-08-12T07:58:08;7.00;;;2.60;;
77026;SDS011;65956;52.986;17.490;2023-08-12T08:00:34;6.80;;;2.60;;
77026;SDS011;65956;52.986;17.490;2023-08-12T08:03:00;6.00;;;2.90;;
77026;SDS011;65956;52.986;17.490;2023-08-12T08:05:26;5.00;;;3.10;;
77026;SDS011;65956;52.986;17.490;2023-08-12T08:07:52;9.70;;;3.30;;
77026;SDS011;65956;52.986;17.490;2023-08-12T08:10:18;6.60;;;2.50;;
77026;SDS011;65956;52.986;17.490;2023-08-12T08:12:44;5.30;;;2.70;;
77026;SDS011;65956;52.986;17.490;2023-08-12T08:15:10;5.60;;;2.90;;
77026;SDS011;65956;52.986;17.490;2023-08-12T08:17:36;5.40;;;2.50;;
77026;SDS011;65956;52.986;17.490;2023-08-12T08:20:03;5.80;;;2.70;;
77026;SDS011;65956;52.986;17.490;2023-08-12T08:22:31;5.30;;;2.30;;
77026;SDS011;65956;52.986;17.490;2023-08-12T08:24:57;6.50;;;2.70;;
77026;SDS011;65956;52.986;17.490;2023-08-12T08:27:24;5.20;;;2.60;;
77026;SDS011;65956;52.986;17.490;2023-08-12T08:29:50;5.10;;;2.60;;
77026;SDS011;65956;52.986;17.490;2023-08-12T08:32:16;6.80;;;2.70;;
77026;SDS011;65956;52.986;17.490;2023-08-12T08:34:42;5.10;;;2.80;;
77026;SDS011;65956;52.986;17.490;2023-08-12T08:37:08;5.60;;;2.60;;
77026;SDS011;65956;52.986;17.490;2023-08-12T08:39:34;5.00;;;2.20;;
77026;SDS011;65956;52.986;17.490;2023-08-12T08:42:00;6.50;;;2.20;;
77026;SDS011;65956;52.986;17.490;2023-08-12T08:44:28;6.20;;;2.20;;
77026;SDS011;65956;52.986;17.490;2023-08-12T08:49:25;5.60;;;2.10;;
77026;SDS011;65956;52.986;17.490;2023-08-12T08:51:52;4.80;;;2.20;;
77026;SDS011;65956;52.986;17.490;2023-08-12T08:54:19;6.30;;;2.40;;
77026;SDS011;65956;52.986;17.490;2023-08-12T08:56:45;4.80;;;2.40;;
77026;SDS011;65956;52.986;17.490;2023-08-12T08:59:11;4.60;;;1.90;;
77026;SDS011;65956;52.986;17.490;2023-08-12T09:01:37;4.90;;;2.00;;
77026;SDS011;65956;52.986;17.490;2023-08-12T09:04:03;4.00;;;2.10;;
77026;SDS011;65956;52.986;17.490;2023-08-12T09:06:31;4.00;;;1.90;;
77026;SDS011;65956;52.986;17.490;2023-08-12T09:08:58;4.50;;;2.10;;
77026;SDS011;65956;52.986;17.490;2023-08-12T09:11:26;3.90;;;1.90;;
77026;SDS011;65956;52.986;17.490;2023-08-12T09:13:53;4.40;;;2.00;;
77026;SDS011;65956;52.986;17.490;2023-08-12T09:16:19;4.40;;;1.90;;
77026;SDS011;65956;52.986;17.490;2023-08-12T09:18:45;4.50;;;2.20;;
77026;SDS011;65956;52.986;17.490;2023-08-12T09:21:11;5.70;;;2.10;;
77026;SDS011;65956;52.986;17.490;2023-08-12T09:23:38;4.40;;;2.00;;
77026;SDS011;65956;52.986;17.490;2023-08-12T09:26:18;4.50;;;2.10;;
77026;SDS011;65956;52.986;17.490;2023-08-12T09:28:46;4.70;;;2.10;;
77026;SDS011;65956;52.986;17.490;2023-08-12T09:31:26;6.40;;;2.40;;
77026;SDS011;65956;52.986;17.490;2023-08-12T09:34:03;6.90;;;2.10;;
77026;SDS011;65956;52.986;17.490;2023-08-12T09:38:59;7.00;;;2.50;;
77026;SDS011;65956;52.986;17.490;2023-08-12T09:41:26;5.70;;;2.00;;
77026;SDS011;65956;52.986;17.490;2023-08-12T09:43:55;5.10;;;2.50;;
77026;SDS011;65956;52.986;17.490;2023-08-12T09:46:22;6.20;;;2.20;;
77026;SDS011;65956;52.986;17.490;2023-08-12T09:48:52;5.00;;;2.10;;
77026;SDS011;65956;52.986;17.490;2023-08-12T09:51:18;4.40;;;1.90;;
77026;SDS011;65956;52.986;17.490;2023-08-12T09:53:48;6.30;;;2.10;;
77026;SDS011;65956;52.986;17.490;2023-08-12T09:56:17;4.30;;;1.80;;
77026;SDS011;65956;52.986;17.490;2023-08-12T09:58:47;4.40;;;2.30;;
77026;SDS011;65956;52.986;17.490;2023-08-12T10:01:14;4.70;;;2.20;;
77026;SDS011;65956;52.986;17.490;2023-08-12T10:03:47;4.30;;;2.20;;
77026;SDS011;65956;52.986;17.490;2023-08-12T10:06:16;4.60;;;2.00;;
77026;SDS011;65956;52.986;17.490;2023-08-12T10:08:45;5.20;;;1.80;;
77026;SDS011;65956;52.986;17.490;2023-08-12T10:11:12;6.00;;;2.10;;
77026;SDS011;65956;52.986;17.490;2023-08-12T10:13:40;7.10;;;2.50;;
77026;SDS011;65956;52.986;17.490;2023-08-12T10:16:06;5.80;;;1.90;;
77026;SDS011;65956;52.986;17.490;2023-08-12T10:18:33;4.30;;;1.80;;
77026;SDS011;65956;52.986;17.490;2023-08-12T10:21:00;4.90;;;2.00;;
77026;SDS011;65956;52.986;17.490;2023-08-12T10:23:27;5.00;;;2.10;;
77026;SDS011;65956;52.986;17.490;2023-08-12T10:25:53;4.60;;;2.30;;
77026;SDS011;65956;52.986;17.490;2023-08-12T10:28:20;4.00;;;2.10;;
77026;SDS011;65956;52.986;17.490;2023-08-12T10:30:47;4.60;;;2.20;;
77026;SDS011;65956;52.986;17.490;2023-08-12T10:33:15;4.60;;;2.10;;
77026;SDS011;65956;52.986;17.490;2023-08-12T10:35:45;3.50;;;1.90;;
77026;SDS011;65956;52.986;17.490;2023-08-12T10:38:17;6.00;;;2.10;;
77026;SDS011;65956;52.986;17.490;2023-08-12T10:40:44;4.30;;;2.30;;
77026;SDS011;65956;52.986;17.490;2023-08-12T10:43:11;4.70;;;1.70;;
77026;SDS011;65956;52.986;17.490;2023-08-12T10:45:51;4.90;;;2.10;;
77026;SDS011;65956;52.986;17.490;2023-08-12T10:48:21;3.30;;;1.70;;
77026;SDS011;65956;52.986;17.490;2023-08-12T10:50:58;6.50;;;2.10;;
77026;SDS011;65956;52.986;17.490;2023-08-12T10:53:25;4.80;;;2.30;;
77026;SDS011;65956;52.986;17.490;2023-08-12T10:55:58;4.00;;;1.90;;
77026;SDS011;65956;52.986;17.490;2023-08-12T10:58:26;5.20;;;2.20;;
77026;SDS011;65956;52.986;17.490;2023-08-12T11:00:57;4.20;;;1.90;;
77026;SDS011;65956;52.986;17.490;2023-08-12T11:05:49;4.90;;;2.00;;
77026;SDS011;65956;52.986;17.490;2023-08-12T11:08:16;3.20;;;1.80;;
77026;SDS011;65956;52.986;17.490;2023-08-12T11:10:42;4.70;;;2.10;;
77026;SDS011;65956;52.986;17.490;2023-08-12T11:13:09;3.80;;;1.80;;
77026;SDS011;65956;52.986;17.490;2023-08-12T11:15:40;5.30;;;2.10;;
77026;SDS011;65956;52.986;17.490;2023-08-12T11:18:08;3.70;;;1.80;;
77026;SDS011;65956;52.986;17.490;2023-08-12T11:20:36;5.20;;;2.00;;
77026;SDS011;65956;52.986;17.490;2023-08-12T11:23:03;4.10;;;1.90;;
77026;SDS011;65956;52.986;17.490;2023-08-12T11:25:31;4.70;;;1.80;;
77026;SDS011;65956;52.986;17.490;2023-08-12T11:27:58;5.90;;;2.20;;
77026;SDS011;65956;52.986;17.490;2023-08-12T11:30:25;4.80;;;2.10;;
77026;SDS011;65956;52.986;17.490;2023-08-12T11:32:52;5.80;;;2.00;;
77026;SDS011;65956;52.986;17.490;2023-08-12T11:35:20;4.20;;;2.00;;
77026;SDS011;65956;52.986;17.490;2023-08-12T11:37:50;5.40;;;2.10;;
77026;SDS011;65956;52.986;17.490;2023-08-12T11:40:27;3.20;;;1.70;;
77026;SDS011;65956;52.986;17.490;2023-08-12T11:42:54;4.50;;;2.10;;
77026;SDS011;65956;52.986;17.490;2023-08-12T11:45:21;4.70;;;1.90;;
77026;SDS011;65956;52.986;17.490;2023-08-12T11:47:48;4.50;;;1.80;;
77026;SDS011;65956;52.986;17.490;2023-08-12T11:50:19;5.50;;;2.00;;
77026;SDS011;65956;52.986;17.490;2023-08-12T11:52:46;3.80;;;1.90;;
77026;SDS011;65956;52.986;17.490;2023-08-12T11:55:13;5.60;;;2.20;;
77026;SDS011;65956;52.986;17.490;2023-08-12T11:57:40;5.50;;;2.60;;
77026;SDS011;65956;52.986;17.490;2023-08-12T12:00:08;3.80;;;1.90;;
77026;SDS011;65956;52.986;17.490;2023-08-12T12:02:48;4.30;;;2.00;;
77026;SDS011;65956;52.986;17.490;2023-08-12T12:05:23;5.50;;;2.20;;
77026;SDS011;65956;52.986;17.490;2023-08-12T12:10:25;6.10;;;2.10;;
77026;SDS011;65956;52.986;17.490;2023-08-12T12:12:54;4.50;;;2.00;;
77026;SDS011;65956;52.986;17.490;2023-08-12T12:15:21;4.50;;;2.40;;
77026;SDS011;65956;52.986;17.490;2023-08-12T12:17:48;5.80;;;2.10;;
77026;SDS011;65956;52.986;17.490;2023-08-12T12:20:15;5.30;;;2.10;;
77026;SDS011;65956;52.986;17.490;2023-08-12T12:22:43;5.70;;;2.40;;
77026;SDS011;65956;52.986;17.490;2023-08-12T12:25:10;4.60;;;2.10;;
77026;SDS011;65956;52.986;17.490;2023-08-12T12:27:38;3.80;;;2.10;;
77026;SDS011;65956;52.986;17.490;2023-08-12T12:30:07;4.40;;;2.10;;
77026;SDS011;65956;52.986;17.490;2023-08-12T12:32:34;4.40;;;2.20;;
77026;SDS011;65956;52.986;17.490;2023-08-12T12:35:00;4.10;;;2.00;;
77026;SDS011;65956;52.986;17.490;2023-08-12T12:37:27;4.60;;;2.00;;
77026;SDS011;65956;52.986;17.490;2023-08-12T12:39:53;5.30;;;2.10;;
77026;SDS011;65956;52.986;17.490;2023-08-12T12:42:22;4.70;;;2.30;;
77026;SDS011;65956;52.986;17.490;2023-08-12T12:44:48;5.00;;;2.60;;
77026;SDS011;65956;52.986;17.490;2023-08-12T12:47:14;4.20;;;2.10;;
77026;SDS011;65956;52.986;17.490;2023-08-12T12:49:40;5.50;;;2.20;;
77026;SDS011;65956;52.986;17.490;2023-08-12T12:52:09;5.20;;;2.20;;
77026;SDS011;65956;52.986;17.490;2023-08-12T12:54:35;6.30;;;2.00;;
77026;SDS011;65956;52.986;17.490;2023-08-12T12:57:01;5.90;;;2.50;;
77026;SDS011;65956;52.986;17.490;2023-08-12T12:59:29;3.80;;;2.10;;
77026;SDS011;65956;52.986;17.490;2023-08-12T13:01:59;6.30;;;2.00;;
77026;SDS011;65956;52.986;17.490;2023-08-12T13:04:25;4.50;;;2.00;;
77026;SDS011;65956;52.986;17.490;2023-08-12T13:06:51;4.20;;;2.10;;
77026;SDS011;65956;52.986;17.490;2023-08-12T13:09:17;5.00;;;2.10;;
77026;SDS011;65956;52.986;17.490;2023-08-12T13:11:43;3.90;;;1.90;;
77026;SDS011;65956;52.986;17.490;2023-08-12T13:14:09;5.50;;;2.00;;
77026;SDS011;65956;52.986;17.490;2023-08-12T13:16:34;4.90;;;2.00;;
77026;SDS011;65956;52.986;17.490;2023-08-12T13:19:01;4.70;;;2.20;;
77026;SDS011;65956;52.986;17.490;2023-08-12T13:21:27;4.50;;;2.10;;
77026;SDS011;65956;52.986;17.490;2023-08-12T13:23:53;7.60;;;2.40;;
77026;SDS011;65956;52.986;17.490;2023-08-12T13:26:21;5.30;;;2.30;;
77026;SDS011;65956;52.986;17.490;2023-08-12T13:28:47;4.30;;;2.30;;
77026;SDS011;65956;52.986;17.490;2023-08-12T13:31:14;4.40;;;2.50;;
77026;SDS011;65956;52.986;17.490;2023-08-12T13:33:40;4.40;;;2.30;;
77026;SDS011;65956;52.986;17.490;2023-08-12T13:36:06;4.00;;;2.30;;
77026;SDS011;65956;52.986;17.490;2023-08-12T13:38:32;3.70;;;2.30;;
77026;SDS011;65956;52.986;17.490;2023-08-12T13:40:58;4.90;;;2.30;;
77026;SDS011;65956;52.986;17.490;2023-08-12T13:43:24;5.70;;;2.20;;
77026;SDS011;65956;52.986;17.490;2023-08-12T13:45:50;5.50;;;2.20;;
77026;SDS011;65956;52.986;17.490;2023-08-12T13:48:16;6.10;;;2.40;;
77026;SDS011;65956;52.986;17.490;2023-08-12T13:50:42;5.40;;;2.20;;
77026;SDS011;65956;52.986;17.490;2023-08-12T13:53:09;7.50;;;2.30;;
77026;SDS011;65956;52.986;17.490;2023-08-12T13:55:35;5.90;;;2.00;;
77026;SDS011;65956;52.986;17.490;2023-08-12T13:58:01;6.70;;;2.20;;
77026;SDS011;65956;52.986;17.490;2023-08-12T14:00:27;4.10;;;2.00;;
77026;SDS011;65956;52.986;17.490;2023-08-12T14:02:53;4.30;;;2.00;;
77026;SDS011;65956;52.986;17.490;2023-08-12T14:05:19;3.90;;;2.00;;
77026;SDS011;65956;52.986;17.490;2023-08-12T14:07:45;4.40;;;2.00;;
77026;SDS011;65956;52.986;17.490;2023-08-12T14:10:11;3.30;;;2.10;;
77026;SDS011;65956;52.986;17.490;2023-08-12T14:12:37;5.50;;;2.10;;
77026;SDS011;65956;52.986;17.490;2023-08-12T14:15:03;4.00;;;2.40;;
77026;SDS011;65956;52.986;17.490;2023-08-12T14:17:30;4.60;;;2.10;;
77026;SDS011;65956;52.986;17.490;2023-08-12T14:19:56;5.00;;;2.00;;
77026;SDS011;65956;52.986;17.490;2023-08-12T14:22:24;5.10;;;2.10;;
77026;SDS011;65956;52.986;17.490;2023-08-12T14:24:50;4.60;;;2.10;;
77026;SDS011;65956;52.986;17.490;2023-08-12T14:27:16;5.10;;;2.50;;
77026;SDS011;65956;52.986;17.490;2023-08-12T14:29:45;5.00;;;2.20;;
77026;SDS011;65956;52.986;17.490;2023-08-12T14:32:12;6.40;;;2.30;;
77026;SDS011;65956;52.986;17.490;2023-08-12T14:34:38;7.60;;;2.30;;
77026;SDS011;65956;52.986;17.490;2023-08-12T14:37:04;8.50;;;2.30;;
77026;SDS011;65956;52.986;17.490;2023-08-12T14:39:31;5.00;;;2.40;;
77026;SDS011;65956;52.986;17.490;2023-08-12T14:41:57;5.10;;;2.40;;
77026;SDS011;65956;52.986;17.490;2023-08-12T14:44:23;7.30;;;2.30;;
77026;SDS011;65956;52.986;17.490;2023-08-12T14:46:48;5.70;;;2.50;;
77026;SDS011;65956;52.986;17.490;2023-08-12T14:49:14;4.90;;;2.20;;
77026;SDS011;65956;52.986;17.490;2023-08-12T14:51:40;7.10;;;2.30;;
77026;SDS011;65956;52.986;17.490;2023-08-12T14:54:06;6.20;;;2.10;;
77026;SDS011;65956;52.986;17.490;2023-08-12T14:56:33;4.90;;;2.50;;
77026;SDS011;65956;52.986;17.490;2023-08-12T14:58:59;6.00;;;2.20;;
77026;SDS011;65956;52.986;17.490;2023-08-12T15:01:25;4.10;;;2.00;;
77026;SDS011;65956;52.986;17.490;2023-08-12T15:03:53;6.70;;;2.20;;
77026;SDS011;65956;52.986;17.490;2023-08-12T15:06:21;4.60;;;2.00;;
77026;SDS011;65956;52.986;17.490;2023-08-12T15:08:47;4.10;;;2.00;;
77026;SDS011;65956;52.986;17.490;2023-08-12T15:11:14;6.90;;;2.50;;
77026;SDS011;65956;52.986;17.490;2023-08-12T15:13:40;4.60;;;2.10;;
77026;SDS011;65956;52.986;17.490;2023-08-12T15:16:06;4.40;;;2.30;;
77026;SDS011;65956;52.986;17.490;2023-08-12T15:18:32;3.90;;;2.20;;
77026;SDS011;65956;52.986;17.490;2023-08-12T15:20:58;6.10;;;2.40;;
77026;SDS011;65956;52.986;17.490;2023-08-12T15:23:24;6.40;;;2.30;;
77026;SDS011;65956;52.986;17.490;2023-08-12T15:25:50;4.60;;;2.20;;
77026;SDS011;65956;52.986;17.490;2023-08-12T15:28:16;5.00;;;2.30;;
77026;SDS011;65956;52.986;17.490;2023-08-12T15:30:42;3.50;;;2.10;;
77026;SDS011;65956;52.986;17.490;2023-08-12T15:33:08;3.80;;;1.70;;
77026;SDS011;65956;52.986;17.490;2023-08-12T15:35:34;7.00;;;1.80;;
77026;SDS011;65956;52.986;17.490;2023-08-12T15:38:00;6.70;;;1.80;;
77026;SDS011;65956;52.986;17.490;2023-08-12T15:40:26;6.40;;;1.80;;
77026;SDS011;65956;52.986;17.490;2023-08-12T15:42:53;5.00;;;1.70;;
77026;SDS011;65956;52.986;17.490;2023-08-12T15:45:19;5.40;;;1.80;;
77026;SDS011;65956;52.986;17.490;2023-08-12T15:47:45;4.00;;;1.60;;
77026;SDS011;65956;52.986;17.490;2023-08-12T15:50:10;4.20;;;1.80;;
77026;SDS011;65956;52.986;17.490;2023-08-12T15:52:36;5.20;;;1.90;;
77026;SDS011;65956;52.986;17.490;2023-08-12T15:55:03;4.70;;;1.90;;
77026;SDS011;65956;52.986;17.490;2023-08-12T15:57:30;4.50;;;2.20;;
77026;SDS011;65956;52.986;17.490;2023-08-12T15:59:58;5.10;;;2.00;;
77026;SDS011;65956;52.986;17.490;2023-08-12T16:02:24;4.70;;;1.90;;
77026;SDS011;65956;52.986;17.490;2023-08-12T16:04:50;5.00;;;2.00;;
77026;SDS011;65956;52.986;17.490;2023-08-12T16:07:16;4.90;;;2.10;;
77026;SDS011;65956;52.986;17.490;2023-08-12T16:09:42;4.10;;;2.00;;
77026;SDS011;65956;52.986;17.490;2023-08-12T16:12:08;6.20;;;2.60;;
77026;SDS011;65956;52.986;17.490;2023-08-12T16:14:34;4.10;;;1.90;;
77026;SDS011;65956;52.986;17.490;2023-08-12T16:17:00;7.90;;;2.40;;
77026;SDS011;65956;52.986;17.490;2023-08-12T16:19:26;4.40;;;2.00;;
77026;SDS011;65956;52.986;17.490;2023-08-12T16:21:52;3.80;;;1.90;;
77026;SDS011;65956;52.986;17.490;2023-08-12T16:24:18;4.70;;;2.10;;
77026;SDS011;65956;52.986;17.490;2023-08-12T16:26:44;5.30;;;2.10;;
77026;SDS011;65956;52.986;17.490;2023-08-12T16:29:10;4.80;;;2.20;;